sensor_id;sensor_type;location;lat;lon;timestamp;P1;durP1;ratioP1;P2;durP2;ratioP2
24383;SDS011;12504;52.870;8.798;2022-09-09T00:00:36;40.03;;;21.80;;
24383;SDS011;12504;52.870;8.798;2022-09-09T00:03:08;39.53;;;21.15;;
24383;SDS011;12504;52.870;8.798;2022-09-09T00:05:57;40.95;;;20.55;;
24383;SDS011;12504;52.870;8.798;2022-09-09T00:08:57;34.00;;;19.38;;
24383;SDS011;12504;52.870;8.798;2022-09-09T00:11:26;36.03;;;20.63;;
24383;SDS011;12504;52.870;8.798;2022-09-09T00:14:02;39.65;;;19.98;;
24383;SDS011;12504;52.870;8.798;2022-09-09T00:16:34;39.15;;;21.88;;
24383;SDS011;12504;52.870;8.798;2022-09-09T00:19:12;39.40;;;19.30;;
24383;SDS011;12504;52.870;8.798;2022-09-09T00:21:49;36.33;;;19.50;;
24383;SDS011;12504;52.870;8.798;2022-09-09T00:24:41;34.65;;;18.98;;
24383;SDS011;12504;52.870;8.798;2022-09-09T00:29:58;31.83;;;17.63;;
24383;SDS011;12504;52.870;8.798;2022-09-09T00:32:37;33.75;;;17.45;;
24383;SDS011;12504;52.870;8.798;2022-09-09T00:49:35;25.90;;;16.42;;
24383;SDS011;12504;52.870;8.798;2022-09-09T00:52:16;29.60;;;16.38;;
24383;SDS011;12504;52.870;8.798;2022-09-09T00:57:32;28.85;;;16.63;;
24383;SDS011;12504;52.870;8.798;2022-09-09T01:07:55;30.90;;;15.38;;
24383;SDS011;12504;52.870;8.798;2022-09-09T01:10:29;28.45;;;16.33;;
24383;SDS011;12504;52.870;8.798;2022-09-09T01:13:09;29.98;;;16.80;;
24383;SDS011;12504;52.870;8.798;2022-09-09T01:15:49;26.25;;;15.45;;
24383;SDS011;12504;52.870;8.798;2022-09-09T01:18:20;25.27;;;16.30;;
24383;SDS011;12504;52.870;8.798;2022-09-09T01:23:52;24.67;;;15.02;;
24383;SDS011;12504;52.870;8.798;2022-09-09T01:26:30;30.58;;;15.77;;
24383;SDS011;12504;52.870;8.798;2022-09-09T01:29:21;22.88;;;15.68;;
24383;SDS011;12504;52.870;8.798;2022-09-09T01:34:56;25.45;;;14.52;;
24383;SDS011;12504;52.870;8.798;2022-09-09T01:37:22;23.40;;;13.27;;
24383;SDS011;12504;52.870;8.798;2022-09-09T01:39:48;28.33;;;13.63;;
24383;SDS011;12504;52.870;8.798;2022-09-09T01:42:15;24.63;;;13.73;;
24383;SDS011;12504;52.870;8.798;2022-09-09T01:44:43;22.63;;;13.40;;
24383;SDS011;12504;52.870;8.798;2022-09-09T01:47:09;24.58;;;13.82;;
24383;SDS011;12504;52.870;8.798;2022-09-09T01:49:48;23.48;;;12.75;;
24383;SDS011;12504;52.870;8.798;2022-09-09T01:52:20;25.25;;;12.05;;
24383;SDS011;12504;52.870;8.798;2022-09-09T01:54:46;19.48;;;11.32;;
24383;SDS011;12504;52.870;8.798;2022-09-09T01:59:56;28.48;;;10.90;;
24383;SDS011;12504;52.870;8.798;2022-09-09T02:05:35;19.33;;;11.20;;
24383;SDS011;12504;52.870;8.798;2022-09-09T02:11:29;18.02;;;10.27;;
24383;SDS011;12504;52.870;8.798;2022-09-09T02:14:05;18.85;;;12.00;;
24383;SDS011;12504;52.870;8.798;2022-09-09T02:16:42;21.45;;;10.77;;
24383;SDS011;12504;52.870;8.798;2022-09-09T02:22:06;19.05;;;9.80;;
24383;SDS011;12504;52.870;8.798;2022-09-09T02:24:36;21.52;;;11.05;;
24383;SDS011;12504;52.870;8.798;2022-09-09T02:27:15;18.10;;;10.73;;
24383;SDS011;12504;52.870;8.798;2022-09-09T02:29:44;21.45;;;10.88;;
24383;SDS011;12504;52.870;8.798;2022-09-09T02:32:22;20.13;;;10.20;;
24383;SDS011;12504;52.870;8.798;2022-09-09T02:34:51;20.88;;;10.52;;
24383;SDS011;12504;52.870;8.798;2022-09-09T02:37:22;16.55;;;9.80;;
24383;SDS011;12504;52.870;8.798;2022-09-09T02:39:54;16.70;;;9.68;;
24383;SDS011;12504;52.870;8.798;2022-09-09T02:42:21;16.65;;;9.32;;
24383;SDS011;12504;52.870;8.798;2022-09-09T02:44:49;20.95;;;10.05;;
24383;SDS011;12504;52.870;8.798;2022-09-09T02:55:28;17.13;;;8.32;;
24383;SDS011;12504;52.870;8.798;2022-09-09T02:58:18;15.48;;;8.57;;
24383;SDS011;12504;52.870;8.798;2022-09-09T03:00:52;16.30;;;8.48;;
24383;SDS011;12504;52.870;8.798;2022-09-09T03:03:19;15.13;;;8.02;;
24383;SDS011;12504;52.870;8.798;2022-09-09T03:05:47;13.27;;;7.47;;
24383;SDS011;12504;52.870;8.798;2022-09-09T03:08:13;14.25;;;7.85;;
24383;SDS011;12504;52.870;8.798;2022-09-09T03:10:40;17.35;;;7.72;;
24383;SDS011;12504;52.870;8.798;2022-09-09T03:13:06;14.80;;;7.97;;
24383;SDS011;12504;52.870;8.798;2022-09-09T03:18:05;15.00;;;7.13;;
24383;SDS011;12504;52.870;8.798;2022-09-09T03:20:32;13.45;;;6.90;;
24383;SDS011;12504;52.870;8.798;2022-09-09T03:22:58;11.15;;;7.05;;
24383;SDS011;12504;52.870;8.798;2022-09-09T03:25:26;17.15;;;6.55;;
24383;SDS011;12504;52.870;8.798;2022-09-09T03:27:53;10.68;;;5.93;;
24383;SDS011;12504;52.870;8.798;2022-09-09T03:30:23;12.45;;;5.30;;
24383;SDS011;12504;52.870;8.798;2022-09-09T03:32:50;12.90;;;6.60;;
24383;SDS011;12504;52.870;8.798;2022-09-09T03:35:16;11.82;;;6.47;;
24383;SDS011;12504;52.870;8.798;2022-09-09T03:37:42;10.77;;;5.20;;
24383;SDS011;12504;52.870;8.798;2022-09-09T03:40:10;9.48;;;5.72;;
24383;SDS011;12504;52.870;8.798;2022-09-09T03:42:36;7.88;;;5.20;;
24383;SDS011;12504;52.870;8.798;2022-09-09T03:45:04;11.52;;;5.53;;
24383;SDS011;12504;52.870;8.798;2022-09-09T03:47:32;19.02;;;5.28;;
24383;SDS011;12504;52.870;8.798;2022-09-09T03:50:04;9.55;;;4.90;;
24383;SDS011;12504;52.870;8.798;2022-09-09T03:52:37;5.65;;;4.13;;
24383;SDS011;12504;52.870;8.798;2022-09-09T03:55:07;7.50;;;4.78;;
24383;SDS011;12504;52.870;8.798;2022-09-09T03:57:34;8.85;;;4.65;;
24383;SDS011;12504;52.870;8.798;2022-09-09T04:00:04;11.68;;;5.22;;
24383;SDS011;12504;52.870;8.798;2022-09-09T04:02:41;9.95;;;4.93;;
24383;SDS011;12504;52.870;8.798;2022-09-09T04:05:09;6.90;;;4.30;;
24383;SDS011;12504;52.870;8.798;2022-09-09T04:07:37;7.07;;;5.70;;
24383;SDS011;12504;52.870;8.798;2022-09-09T04:10:03;12.32;;;5.03;;
24383;SDS011;12504;52.870;8.798;2022-09-09T04:12:30;9.98;;;4.72;;
24383;SDS011;12504;52.870;8.798;2022-09-09T04:14:56;16.77;;;6.30;;
24383;SDS011;12504;52.870;8.798;2022-09-09T04:17:22;8.40;;;4.15;;
24383;SDS011;12504;52.870;8.798;2022-09-09T04:19:47;12.32;;;5.38;;
24383;SDS011;12504;52.870;8.798;2022-09-09T04:22:13;7.43;;;5.28;;
24383;SDS011;12504;52.870;8.798;2022-09-09T04:24:39;8.95;;;5.03;;
24383;SDS011;12504;52.870;8.798;2022-09-09T04:27:06;6.88;;;3.85;;
24383;SDS011;12504;52.870;8.798;2022-09-09T04:29:34;6.22;;;4.00;;
24383;SDS011;12504;52.870;8.798;2022-09-09T04:32:00;7.38;;;4.70;;
24383;SDS011;12504;52.870;8.798;2022-09-09T04:34:25;8.40;;;4.10;;
24383;SDS011;12504;52.870;8.798;2022-09-09T04:36:52;8.07;;;4.13;;
24383;SDS011;12504;52.870;8.798;2022-09-09T04:39:18;8.48;;;3.90;;
24383;SDS011;12504;52.870;8.798;2022-09-09T04:41:44;12.80;;;5.30;;
24383;SDS011;12504;52.870;8.798;2022-09-09T04:44:10;6.20;;;4.03;;
24383;SDS011;12504;52.870;8.798;2022-09-09T04:46:36;6.88;;;3.85;;
24383;SDS011;12504;52.870;8.798;2022-09-09T04:49:02;10.32;;;4.20;;
24383;SDS011;12504;52.870;8.798;2022-09-09T04:51:30;9.52;;;4.97;;
24383;SDS011;12504;52.870;8.798;2022-09-09T04:53:56;6.25;;;3.70;;
24383;SDS011;12504;52.870;8.798;2022-09-09T04:56:22;12.75;;;3.92;;
24383;SDS011;12504;52.870;8.798;2022-09-09T04:58:51;5.68;;;3.45;;
24383;SDS011;12504;52.870;8.798;2022-09-09T05:01:20;7.25;;;4.60;;
24383;SDS011;12504;52.870;8.798;2022-09-09T05:03:48;10.43;;;4.25;;
24383;SDS011;12504;52.870;8.798;2022-09-09T05:06:19;8.55;;;4.13;;
24383;SDS011;12504;52.870;8.798;2022-09-09T05:08:48;8.75;;;4.82;;
24383;SDS011;12504;52.870;8.798;2022-09-09T05:11:22;7.90;;;4.60;;
24383;SDS011;12504;52.870;8.798;2022-09-09T05:13:51;10.45;;;4.32;;
24383;SDS011;12504;52.870;8.798;2022-09-09T05:16:18;8.95;;;5.13;;
24383;SDS011;12504;52.870;8.798;2022-09-09T05:18:45;10.40;;;4.85;;
24383;SDS011;12504;52.870;8.798;2022-09-09T05:21:12;9.30;;;4.60;;
24383;SDS011;12504;52.870;8.798;2022-09-09T05:23:39;7.47;;;4.22;;
24383;SDS011;12504;52.870;8.798;2022-09-09T05:26:07;8.40;;;5.10;;
24383;SDS011;12504;52.870;8.798;2022-09-09T05:28:36;10.80;;;4.75;;
24383;SDS011;12504;52.870;8.798;2022-09-09T05:31:03;7.18;;;4.20;;
24383;SDS011;12504;52.870;8.798;2022-09-09T05:33:33;8.80;;;4.75;;
24383;SDS011;12504;52.870;8.798;2022-09-09T05:36:01;8.00;;;4.82;;
24383;SDS011;12504;52.870;8.798;2022-09-09T05:38:31;8.63;;;4.93;;
24383;SDS011;12504;52.870;8.798;2022-09-09T05:41:01;9.88;;;5.32;;
24383;SDS011;12504;52.870;8.798;2022-09-09T05:43:28;11.23;;;5.75;;
24383;SDS011;12504;52.870;8.798;2022-09-09T05:45:59;12.25;;;5.55;;
24383;SDS011;12504;52.870;8.798;2022-09-09T05:48:29;7.63;;;5.03;;
24383;SDS011;12504;52.870;8.798;2022-09-09T05:50:58;8.55;;;4.72;;
24383;SDS011;12504;52.870;8.798;2022-09-09T05:53:25;8.48;;;4.53;;
24383;SDS011;12504;52.870;8.798;2022-09-09T05:55:58;8.20;;;4.47;;
24383;SDS011;12504;52.870;8.798;2022-09-09T05:58:31;5.55;;;3.65;;
24383;SDS011;12504;52.870;8.798;2022-09-09T06:01:08;7.55;;;3.72;;
24383;SDS011;12504;52.870;8.798;2022-09-09T06:03:36;6.28;;;3.40;;
24383;SDS011;12504;52.870;8.798;2022-09-09T06:06:04;6.15;;;4.03;;
24383;SDS011;12504;52.870;8.798;2022-09-09T06:08:32;8.63;;;4.40;;
24383;SDS011;12504;52.870;8.798;2022-09-09T06:11:07;6.43;;;3.75;;
24383;SDS011;12504;52.870;8.798;2022-09-09T06:13:36;7.90;;;3.95;;
24383;SDS011;12504;52.870;8.798;2022-09-09T06:16:05;7.82;;;4.43;;
24383;SDS011;12504;52.870;8.798;2022-09-09T06:18:40;6.40;;;3.67;;
24383;SDS011;12504;52.870;8.798;2022-09-09T06:21:17;5.68;;;3.72;;
24383;SDS011;12504;52.870;8.798;2022-09-09T06:23:45;6.25;;;4.22;;
24383;SDS011;12504;52.870;8.798;2022-09-09T06:26:18;6.78;;;4.03;;
24383;SDS011;12504;52.870;8.798;2022-09-09T06:28:47;12.48;;;4.10;;
24383;SDS011;12504;52.870;8.798;2022-09-09T06:31:15;8.65;;;4.15;;
24383;SDS011;12504;52.870;8.798;2022-09-09T06:33:43;7.60;;;4.43;;
24383;SDS011;12504;52.870;8.798;2022-09-09T06:36:11;7.63;;;4.28;;
24383;SDS011;12504;52.870;8.798;2022-09-09T06:38:39;9.48;;;3.80;;
24383;SDS011;12504;52.870;8.798;2022-09-09T06:41:04;9.77;;;4.70;;
24383;SDS011;12504;52.870;8.798;2022-09-09T06:43:31;9.52;;;3.97;;
24383;SDS011;12504;52.870;8.798;2022-09-09T06:46:09;6.15;;;3.60;;
24383;SDS011;12504;52.870;8.798;2022-09-09T06:48:41;10.45;;;3.88;;
24383;SDS011;12504;52.870;8.798;2022-09-09T06:51:16;5.85;;;4.03;;
24383;SDS011;12504;52.870;8.798;2022-09-09T06:53:43;9.60;;;4.63;;
24383;SDS011;12504;52.870;8.798;2022-09-09T06:56:22;11.02;;;4.75;;
24383;SDS011;12504;52.870;8.798;2022-09-09T06:58:52;9.30;;;4.05;;
24383;SDS011;12504;52.870;8.798;2022-09-09T07:01:25;5.28;;;3.55;;
24383;SDS011;12504;52.870;8.798;2022-09-09T07:03:55;8.55;;;3.58;;
24383;SDS011;12504;52.870;8.798;2022-09-09T07:06:26;6.70;;;4.07;;
24383;SDS011;12504;52.870;8.798;2022-09-09T07:08:53;7.88;;;3.42;;
24383;SDS011;12504;52.870;8.798;2022-09-09T07:11:24;6.85;;;2.80;;
24383;SDS011;12504;52.870;8.798;2022-09-09T07:13:52;6.63;;;3.40;;
24383;SDS011;12504;52.870;8.798;2022-09-09T07:16:19;7.25;;;3.58;;
24383;SDS011;12504;52.870;8.798;2022-09-09T07:18:48;12.25;;;5.07;;
24383;SDS011;12504;52.870;8.798;2022-09-09T07:21:15;4.28;;;3.00;;
24383;SDS011;12504;52.870;8.798;2022-09-09T07:23:42;8.80;;;3.40;;
24383;SDS011;12504;52.870;8.798;2022-09-09T07:26:09;6.40;;;2.70;;
24383;SDS011;12504;52.870;8.798;2022-09-09T07:28:44;5.95;;;3.25;;
24383;SDS011;12504;52.870;8.798;2022-09-09T07:31:17;5.35;;;2.97;;
24383;SDS011;12504;52.870;8.798;2022-09-09T07:33:46;9.02;;;3.90;;
24383;SDS011;12504;52.870;8.798;2022-09-09T07:36:14;6.70;;;3.22;;
24383;SDS011;12504;52.870;8.798;2022-09-09T07:38:43;3.90;;;2.90;;
24383;SDS011;12504;52.870;8.798;2022-09-09T07:41:13;6.18;;;3.15;;
24383;SDS011;12504;52.870;8.798;2022-09-09T07:43:46;4.68;;;3.03;;
24383;SDS011;12504;52.870;8.798;2022-09-09T07:46:13;5.70;;;3.03;;
24383;SDS011;12504;52.870;8.798;2022-09-09T07:48:47;4.15;;;3.28;;
24383;SDS011;12504;52.870;8.798;2022-09-09T07:51:19;11.80;;;3.53;;
24383;SDS011;12504;52.870;8.798;2022-09-09T07:53:54;5.97;;;3.40;;
24383;SDS011;12504;52.870;8.798;2022-09-09T07:56:23;4.47;;;2.92;;
24383;SDS011;12504;52.870;8.798;2022-09-09T07:58:51;6.03;;;3.42;;
24383;SDS011;12504;52.870;8.798;2022-09-09T08:03:51;7.18;;;2.95;;
24383;SDS011;12504;52.870;8.798;2022-09-09T08:06:24;6.57;;;2.92;;
24383;SDS011;12504;52.870;8.798;2022-09-09T08:08:53;6.75;;;2.80;;
24383;SDS011;12504;52.870;8.798;2022-09-09T08:11:20;5.30;;;3.28;;
24383;SDS011;12504;52.870;8.798;2022-09-09T08:13:48;6.30;;;3.33;;
24383;SDS011;12504;52.870;8.798;2022-09-09T08:16:16;9.90;;;3.28;;
24383;SDS011;12504;52.870;8.798;2022-09-09T08:18:46;8.43;;;2.97;;
24383;SDS011;12504;52.870;8.798;2022-09-09T08:21:24;6.75;;;2.72;;
24383;SDS011;12504;52.870;8.798;2022-09-09T08:23:55;5.65;;;2.30;;
24383;SDS011;12504;52.870;8.798;2022-09-09T08:26:23;4.53;;;2.75;;
24383;SDS011;12504;52.870;8.798;2022-09-09T08:31:19;2.85;;;2.40;;
24383;SDS011;12504;52.870;8.798;2022-09-09T08:33:51;8.27;;;3.33;;
24383;SDS011;12504;52.870;8.798;2022-09-09T08:36:20;7.30;;;4.00;;
24383;SDS011;12504;52.870;8.798;2022-09-09T08:38:49;4.75;;;3.40;;
24383;SDS011;12504;52.870;8.798;2022-09-09T08:41:32;8.13;;;3.65;;
24383;SDS011;12504;52.870;8.798;2022-09-09T08:47:09;15.57;;;6.15;;
24383;SDS011;12504;52.870;8.798;2022-09-09T08:58:09;7.03;;;3.17;;
24383;SDS011;12504;52.870;8.798;2022-09-09T09:03:52;8.48;;;3.00;;
24383;SDS011;12504;52.870;8.798;2022-09-09T09:10:04;7.28;;;3.40;;
24383;SDS011;12504;52.870;8.798;2022-09-09T09:12:37;4.20;;;2.65;;
24383;SDS011;12504;52.870;8.798;2022-09-09T09:15:17;9.70;;;2.95;;
24383;SDS011;12504;52.870;8.798;2022-09-09T09:17:49;5.57;;;3.42;;
24383;SDS011;12504;52.870;8.798;2022-09-09T09:20:17;5.32;;;3.67;;
24383;SDS011;12504;52.870;8.798;2022-09-09T09:22:49;10.43;;;5.43;;
24383;SDS011;12504;52.870;8.798;2022-09-09T09:25:19;10.57;;;4.38;;
24383;SDS011;12504;52.870;8.798;2022-09-09T09:30:57;10.57;;;6.47;;
24383;SDS011;12504;52.870;8.798;2022-09-09T09:36:17;7.68;;;4.07;;
24383;SDS011;12504;52.870;8.798;2022-09-09T09:38:52;6.72;;;5.15;;
24383;SDS011;12504;52.870;8.798;2022-09-09T09:41:41;9.68;;;4.75;;
24383;SDS011;12504;52.870;8.798;2022-09-09T09:44:26;8.00;;;4.45;;
24383;SDS011;12504;52.870;8.798;2022-09-09T09:47:08;6.45;;;5.35;;
24383;SDS011;12504;52.870;8.798;2022-09-09T09:49:54;10.52;;;5.50;;
24383;SDS011;12504;52.870;8.798;2022-09-09T09:52:24;7.63;;;4.95;;
24383;SDS011;12504;52.870;8.798;2022-09-09T09:54:54;10.10;;;4.60;;
24383;SDS011;12504;52.870;8.798;2022-09-09T09:57:23;7.30;;;4.65;;
24383;SDS011;12504;52.870;8.798;2022-09-09T10:02:47;12.88;;;5.50;;
24383;SDS011;12504;52.870;8.798;2022-09-09T10:05:24;7.32;;;3.70;;
24383;SDS011;12504;52.870;8.798;2022-09-09T10:08:10;13.10;;;4.80;;
24383;SDS011;12504;52.870;8.798;2022-09-09T10:10:50;8.35;;;3.85;;
24383;SDS011;12504;52.870;8.798;2022-09-09T10:14:05;4.82;;;3.70;;
24383;SDS011;12504;52.870;8.798;2022-09-09T10:17:03;11.07;;;4.03;;
24383;SDS011;12504;52.870;8.798;2022-09-09T10:19:54;7.68;;;3.45;;
24383;SDS011;12504;52.870;8.798;2022-09-09T10:22:44;8.25;;;3.97;;
24383;SDS011;12504;52.870;8.798;2022-09-09T10:25:20;5.80;;;3.15;;
24383;SDS011;12504;52.870;8.798;2022-09-09T10:28:07;5.30;;;2.80;;
24383;SDS011;12504;52.870;8.798;2022-09-09T10:31:15;9.23;;;4.00;;
24383;SDS011;12504;52.870;8.798;2022-09-09T10:34:01;13.50;;;4.45;;
24383;SDS011;12504;52.870;8.798;2022-09-09T10:36:48;25.75;;;6.15;;
24383;SDS011;12504;52.870;8.798;2022-09-09T10:49:59;13.68;;;6.57;;
24383;SDS011;12504;52.870;8.798;2022-09-09T10:55:20;9.82;;;7.03;;
24383;SDS011;12504;52.870;8.798;2022-09-09T10:57:50;8.52;;;6.40;;
24383;SDS011;12504;52.870;8.798;2022-09-09T11:03:02;10.13;;;5.50;;
24383;SDS011;12504;52.870;8.798;2022-09-09T11:05:42;6.45;;;4.95;;
24383;SDS011;12504;52.870;8.798;2022-09-09T11:08:14;7.03;;;5.18;;
24383;SDS011;12504;52.870;8.798;2022-09-09T11:11:02;6.05;;;5.38;;
24383;SDS011;12504;52.870;8.798;2022-09-09T11:13:42;7.50;;;5.47;;
24383;SDS011;12504;52.870;8.798;2022-09-09T11:18:57;8.45;;;5.70;;
24383;SDS011;12504;52.870;8.798;2022-09-09T11:21:45;12.35;;;5.85;;
24383;SDS011;12504;52.870;8.798;2022-09-09T11:24:15;7.38;;;5.72;;
24383;SDS011;12504;52.870;8.798;2022-09-09T11:26:47;6.68;;;5.80;;
24383;SDS011;12504;52.870;8.798;2022-09-09T11:38:09;7.10;;;5.10;;
24383;SDS011;12504;52.870;8.798;2022-09-09T11:40:43;9.02;;;4.63;;
24383;SDS011;12504;52.870;8.798;2022-09-09T11:43:11;11.50;;;3.80;;
24383;SDS011;12504;52.870;8.798;2022-09-09T11:45:51;5.65;;;4.63;;
24383;SDS011;12504;52.870;8.798;2022-09-09T11:48:40;7.55;;;4.88;;
24383;SDS011;12504;52.870;8.798;2022-09-09T11:53:51;11.10;;;4.55;;
24383;SDS011;12504;52.870;8.798;2022-09-09T11:56:34;10.32;;;4.72;;
24383;SDS011;12504;52.870;8.798;2022-09-09T11:59:20;8.38;;;4.32;;
24383;SDS011;12504;52.870;8.798;2022-09-09T12:01:59;13.18;;;4.95;;
24383;SDS011;12504;52.870;8.798;2022-09-09T12:07:03;10.30;;;5.80;;
24383;SDS011;12504;52.870;8.798;2022-09-09T12:09:43;6.38;;;4.53;;
24383;SDS011;12504;52.870;8.798;2022-09-09T12:12:27;13.35;;;6.10;;
24383;SDS011;12504;52.870;8.798;2022-09-09T12:17:27;11.48;;;4.97;;
24383;SDS011;12504;52.870;8.798;2022-09-09T12:20:30;6.10;;;5.43;;
24383;SDS011;12504;52.870;8.798;2022-09-09T12:23:06;7.63;;;5.00;;
24383;SDS011;12504;52.870;8.798;2022-09-09T12:28:34;9.52;;;3.78;;
24383;SDS011;12504;52.870;8.798;2022-09-09T12:31:08;5.03;;;3.50;;
24383;SDS011;12504;52.870;8.798;2022-09-09T12:33:45;4.53;;;4.13;;
24383;SDS011;12504;52.870;8.798;2022-09-09T12:36:16;5.85;;;3.33;;
24383;SDS011;12504;52.870;8.798;2022-09-09T12:38:46;6.20;;;3.28;;
24383;SDS011;12504;52.870;8.798;2022-09-09T12:41:20;9.50;;;3.03;;
24383;SDS011;12504;52.870;8.798;2022-09-09T12:43:49;3.10;;;2.28;;
24383;SDS011;12504;52.870;8.798;2022-09-09T12:49:05;8.45;;;2.97;;
24383;SDS011;12504;52.870;8.798;2022-09-09T12:51:46;10.07;;;3.28;;
24383;SDS011;12504;52.870;8.798;2022-09-09T12:54:12;4.57;;;3.17;;
24383;SDS011;12504;52.870;8.798;2022-09-09T12:56:44;6.20;;;4.15;;
24383;SDS011;12504;52.870;8.798;2022-09-09T12:59:22;6.97;;;2.85;;
24383;SDS011;12504;52.870;8.798;2022-09-09T13:01:56;4.75;;;2.78;;
24383;SDS011;12504;52.870;8.798;2022-09-09T13:04:23;3.30;;;2.47;;
24383;SDS011;12504;52.870;8.798;2022-09-09T13:06:49;8.63;;;2.75;;
24383;SDS011;12504;52.870;8.798;2022-09-09T13:09:14;10.00;;;3.53;;
24383;SDS011;12504;52.870;8.798;2022-09-09T13:11:44;7.05;;;3.28;;
24383;SDS011;12504;52.870;8.798;2022-09-09T13:14:21;4.82;;;2.90;;
24383;SDS011;12504;52.870;8.798;2022-09-09T13:16:56;5.97;;;3.22;;
24383;SDS011;12504;52.870;8.798;2022-09-09T13:19:24;4.85;;;3.13;;
24383;SDS011;12504;52.870;8.798;2022-09-09T13:21:54;9.57;;;3.75;;
24383;SDS011;12504;52.870;8.798;2022-09-09T13:26:55;10.35;;;4.72;;
24383;SDS011;12504;52.870;8.798;2022-09-09T13:29:28;5.60;;;3.58;;
24383;SDS011;12504;52.870;8.798;2022-09-09T13:32:05;9.10;;;4.90;;
24383;SDS011;12504;52.870;8.798;2022-09-09T13:34:37;17.63;;;5.40;;
24383;SDS011;12504;52.870;8.798;2022-09-09T13:37:03;11.77;;;4.55;;
24383;SDS011;12504;52.870;8.798;2022-09-09T13:39:35;9.27;;;5.35;;
24383;SDS011;12504;52.870;8.798;2022-09-09T13:42:02;8.60;;;5.55;;
24383;SDS011;12504;52.870;8.798;2022-09-09T13:44:30;9.00;;;4.32;;
24383;SDS011;12504;52.870;8.798;2022-09-09T13:47:02;13.10;;;5.82;;
24383;SDS011;12504;52.870;8.798;2022-09-09T13:49:42;9.75;;;5.85;;
24383;SDS011;12504;52.870;8.798;2022-09-09T13:52:12;11.30;;;5.65;;
24383;SDS011;12504;52.870;8.798;2022-09-09T13:54:39;12.27;;;6.00;;
24383;SDS011;12504;52.870;8.798;2022-09-09T13:57:12;8.10;;;5.95;;
24383;SDS011;12504;52.870;8.798;2022-09-09T13:59:44;11.20;;;5.65;;
24383;SDS011;12504;52.870;8.798;2022-09-09T14:05:58;16.58;;;6.63;;
24383;SDS011;12504;52.870;8.798;2022-09-09T14:08:26;13.40;;;6.20;;
24383;SDS011;12504;52.870;8.798;2022-09-09T14:11:01;8.07;;;5.82;;
24383;SDS011;12504;52.870;8.798;2022-09-09T14:13:28;10.15;;;6.18;;
24383;SDS011;12504;52.870;8.798;2022-09-09T14:15:53;9.90;;;6.70;;
24383;SDS011;12504;52.870;8.798;2022-09-09T14:18:19;15.80;;;8.60;;
24383;SDS011;12504;52.870;8.798;2022-09-09T14:20:45;12.48;;;7.95;;
24383;SDS011;12504;52.870;8.798;2022-09-09T14:23:11;9.73;;;6.88;;
24383;SDS011;12504;52.870;8.798;2022-09-09T14:25:39;12.63;;;6.70;;
24383;SDS011;12504;52.870;8.798;2022-09-09T14:28:07;21.42;;;8.60;;
24383;SDS011;12504;52.870;8.798;2022-09-09T14:30:34;19.45;;;8.95;;
24383;SDS011;12504;52.870;8.798;2022-09-09T14:32:59;13.02;;;8.38;;
24383;SDS011;12504;52.870;8.798;2022-09-09T14:35:25;12.95;;;8.82;;
24383;SDS011;12504;52.870;8.798;2022-09-09T14:37:51;12.95;;;8.50;;
24383;SDS011;12504;52.870;8.798;2022-09-09T14:40:16;11.77;;;7.93;;
24383;SDS011;12504;52.870;8.798;2022-09-09T14:42:42;27.80;;;10.13;;
24383;SDS011;12504;52.870;8.798;2022-09-09T14:45:08;18.55;;;10.43;;
24383;SDS011;12504;52.870;8.798;2022-09-09T14:47:34;20.00;;;9.25;;
24383;SDS011;12504;52.870;8.798;2022-09-09T14:50:00;16.02;;;9.98;;
24383;SDS011;12504;52.870;8.798;2022-09-09T14:52:27;13.27;;;9.25;;
24383;SDS011;12504;52.870;8.798;2022-09-09T14:54:54;18.48;;;10.13;;
24383;SDS011;12504;52.870;8.798;2022-09-09T14:57:20;13.65;;;9.32;;
24383;SDS011;12504;52.870;8.798;2022-09-09T14:59:46;14.35;;;9.30;;
24383;SDS011;12504;52.870;8.798;2022-09-09T15:02:11;13.40;;;7.35;;
24383;SDS011;12504;52.870;8.798;2022-09-09T15:04:38;17.48;;;8.02;;
24383;SDS011;12504;52.870;8.798;2022-09-09T15:07:04;13.70;;;7.15;;
24383;SDS011;12504;52.870;8.798;2022-09-09T15:09:30;15.85;;;7.97;;
24383;SDS011;12504;52.870;8.798;2022-09-09T15:11:55;14.70;;;7.22;;
24383;SDS011;12504;52.870;8.798;2022-09-09T15:14:21;9.93;;;7.32;;
24383;SDS011;12504;52.870;8.798;2022-09-09T15:16:47;8.65;;;6.88;;
24383;SDS011;12504;52.870;8.798;2022-09-09T15:19:12;10.88;;;5.70;;
24383;SDS011;12504;52.870;8.798;2022-09-09T15:21:38;18.35;;;8.23;;
24383;SDS011;12504;52.870;8.798;2022-09-09T15:24:03;9.07;;;6.10;;
24383;SDS011;12504;52.870;8.798;2022-09-09T15:26:32;10.20;;;5.43;;
24383;SDS011;12504;52.870;8.798;2022-09-09T15:28:58;7.90;;;5.60;;
24383;SDS011;12504;52.870;8.798;2022-09-09T15:31:27;8.52;;;5.68;;
24383;SDS011;12504;52.870;8.798;2022-09-09T15:33:59;11.82;;;6.55;;
24383;SDS011;12504;52.870;8.798;2022-09-09T15:36:29;8.95;;;6.10;;
24383;SDS011;12504;52.870;8.798;2022-09-09T15:38:59;8.63;;;5.85;;
24383;SDS011;12504;52.870;8.798;2022-09-09T15:41:26;7.75;;;5.13;;
24383;SDS011;12504;52.870;8.798;2022-09-09T15:43:53;8.70;;;5.95;;
24383;SDS011;12504;52.870;8.798;2022-09-09T15:46:30;11.18;;;5.28;;
24383;SDS011;12504;52.870;8.798;2022-09-09T15:48:58;7.60;;;4.65;;
24383;SDS011;12504;52.870;8.798;2022-09-09T15:51:27;8.85;;;4.93;;
24383;SDS011;12504;52.870;8.798;2022-09-09T15:53:54;10.20;;;5.85;;
24383;SDS011;12504;52.870;8.798;2022-09-09T15:56:21;8.68;;;5.60;;
24383;SDS011;12504;52.870;8.798;2022-09-09T15:58:47;9.68;;;5.75;;
24383;SDS011;12504;52.870;8.798;2022-09-09T16:01:13;6.43;;;4.95;;
24383;SDS011;12504;52.870;8.798;2022-09-09T16:03:42;11.02;;;5.95;;
24383;SDS011;12504;52.870;8.798;2022-09-09T16:06:10;7.93;;;5.07;;
24383;SDS011;12504;52.870;8.798;2022-09-09T16:08:40;12.80;;;6.50;;
24383;SDS011;12504;52.870;8.798;2022-09-09T16:11:11;7.57;;;5.07;;
24383;SDS011;12504;52.870;8.798;2022-09-09T16:13:42;9.20;;;6.07;;
24383;SDS011;12504;52.870;8.798;2022-09-09T16:16:10;11.48;;;6.13;;
24383;SDS011;12504;52.870;8.798;2022-09-09T16:18:40;9.93;;;6.47;;
24383;SDS011;12504;52.870;8.798;2022-09-09T16:21:08;7.93;;;5.82;;
24383;SDS011;12504;52.870;8.798;2022-09-09T16:23:39;7.75;;;6.20;;
24383;SDS011;12504;52.870;8.798;2022-09-09T16:26:05;7.50;;;5.30;;
24383;SDS011;12504;52.870;8.798;2022-09-09T16:28:31;12.43;;;6.63;;
24383;SDS011;12504;52.870;8.798;2022-09-09T16:30:57;10.23;;;6.05;;
24383;SDS011;12504;52.870;8.798;2022-09-09T16:33:26;7.70;;;5.22;;
24383;SDS011;12504;52.870;8.798;2022-09-09T16:35:52;12.60;;;6.13;;
24383;SDS011;12504;52.870;8.798;2022-09-09T16:38:18;7.15;;;5.00;;
24383;SDS011;12504;52.870;8.798;2022-09-09T16:40:43;10.10;;;5.30;;
24383;SDS011;12504;52.870;8.798;2022-09-09T16:43:09;11.55;;;5.03;;
24383;SDS011;12504;52.870;8.798;2022-09-09T16:45:44;8.60;;;5.68;;
24383;SDS011;12504;52.870;8.798;2022-09-09T16:48:10;10.07;;;5.25;;
24383;SDS011;12504;52.870;8.798;2022-09-09T16:50:36;7.82;;;5.18;;
24383;SDS011;12504;52.870;8.798;2022-09-09T16:53:03;7.97;;;6.13;;
24383;SDS011;12504;52.870;8.798;2022-09-09T16:55:37;12.70;;;5.30;;
24383;SDS011;12504;52.870;8.798;2022-09-09T16:58:04;12.70;;;5.03;;
24383;SDS011;12504;52.870;8.798;2022-09-09T17:00:30;14.90;;;5.03;;
24383;SDS011;12504;52.870;8.798;2022-09-09T17:02:56;19.95;;;5.57;;
24383;SDS011;12504;52.870;8.798;2022-09-09T17:05:21;6.53;;;3.78;;
24383;SDS011;12504;52.870;8.798;2022-09-09T17:07:48;8.82;;;4.40;;
24383;SDS011;12504;52.870;8.798;2022-09-09T17:10:13;7.47;;;3.85;;
24383;SDS011;12504;52.870;8.798;2022-09-09T17:12:39;10.98;;;4.93;;
24383;SDS011;12504;52.870;8.798;2022-09-09T17:15:06;9.43;;;6.05;;
24383;SDS011;12504;52.870;8.798;2022-09-09T17:17:32;13.00;;;5.75;;
24383;SDS011;12504;52.870;8.798;2022-09-09T17:19:58;15.23;;;5.57;;